createdAt,value
2023-02-02T00:01:35.694Z,72.59
2023-02-02T00:04:38.803Z,73.02
2023-02-02T00:07:41.304Z,72.88
2023-02-02T00:10:45.352Z,73.38
2023-02-02T00:13:47.918Z,72.27
2023-02-02T00:16:53.071Z,72.62
2023-02-02T00:19:55.632Z,72.96
2023-02-02T00:22:58.736Z,72.95
2023-02-02T00:26:01.314Z,73.58
2023-02-02T00:29:05.538Z,73.41
2023-02-02T00:32:08.077Z,72.90
2023-02-02T00:35:11.186Z,73.38
2023-02-02T00:38:14.336Z,73.84
2023-02-02T00:41:17.580Z,72.20
2023-02-02T00:44:38.590Z,71.92
2023-02-02T00:47:50.512Z,71.69
2023-02-02T00:50:53.791Z,70.84
2023-02-02T00:53:56.924Z,69.87
2023-02-02T00:56:59.602Z,69.29
2023-02-02T01:00:04.210Z,68.85
2023-02-02T01:03:07.127Z,68.16
2023-02-02T01:06:10.631Z,69.48
2023-02-02T01:09:13.327Z,69.61
2023-02-02T01:12:16.546Z,69.77
2023-02-02T01:15:19.631Z,69.68
2023-02-02T01:18:22.804Z,69.75
2023-02-02T01:21:26.232Z,69.12
2023-02-02T01:24:29.353Z,69.70
2023-02-02T01:27:32.005Z,69.12
2023-02-02T01:30:35.114Z,69.29
2023-02-02T01:33:38.425Z,69.93
2023-02-02T01:36:41.626Z,70.10
2023-02-02T01:39:44.273Z,70.08
2023-02-02T01:42:47.353Z,70.04
2023-02-02T01:45:51.337Z,70.16
2023-02-02T01:49:14.556Z,69.92
2023-02-02T01:52:20.896Z,70.24
2023-02-02T01:55:26.725Z,69.40
2023-02-02T01:58:34.459Z,69.11
2023-02-02T02:01:37.601Z,69.31
2023-02-02T02:04:42.393Z,68.54
2023-02-02T02:07:48.410Z,69.04
2023-02-02T02:10:51.740Z,68.96
2023-02-02T02:14:15.976Z,69.38
2023-02-02T02:17:44.897Z,68.60
2023-02-02T02:21:32.301Z,68.76
2023-02-02T02:25:12.486Z,69.09
2023-02-02T02:28:34.693Z,69.52
2023-02-02T02:31:46.369Z,69.37
2023-02-02T02:35:29.142Z,68.92
2023-02-02T02:38:44.239Z,70.08
2023-02-02T02:41:51.617Z,70.10
2023-02-02T02:44:56.567Z,69.83
2023-02-02T02:47:59.932Z,70.09
2023-02-02T02:51:29.910Z,69.26
2023-02-02T02:54:45.665Z,69.59
2023-02-02T02:58:09.931Z,70.08
2023-02-02T03:01:30.270Z,70.70
2023-02-02T03:05:19.835Z,70.60
2023-02-02T03:08:38.000Z,70.67
2023-02-02T03:11:41.377Z,71.06
2023-02-02T03:14:44.267Z,70.86
2023-02-02T03:17:49.312Z,71.14
2023-02-02T03:20:52.136Z,70.55
2023-02-02T03:23:54.995Z,71.03
2023-02-02T03:26:57.977Z,71.22
2023-02-02T03:30:01.192Z,71.78
2023-02-02T03:33:05.448Z,71.55
2023-02-02T03:36:08.968Z,72.21
2023-02-02T03:39:11.648Z,71.96
2023-02-02T03:42:14.563Z,71.91
2023-02-02T03:45:17.943Z,72.66
2023-02-02T03:48:20.728Z,72.49
2023-02-02T03:51:23.603Z,72.00
2023-02-02T03:54:27.551Z,72.41
2023-02-02T03:57:30.816Z,72.53
2023-02-02T04:00:33.903Z,72.36
2023-02-02T04:03:37.112Z,71.53
2023-02-02T04:06:39.927Z,72.12
2023-02-02T04:09:43.009Z,72.04
2023-02-02T04:12:45.632Z,72.07
2023-02-02T04:15:56.057Z,72.30
2023-02-02T04:18:58.636Z,70.93
2023-02-02T04:22:01.750Z,71.63
2023-02-02T04:25:04.673Z,71.34
2023-02-02T04:28:07.622Z,70.78
2023-02-02T04:31:10.178Z,71.50
2023-02-02T04:34:13.302Z,71.22
2023-02-02T04:37:15.847Z,70.61
2023-02-02T04:40:19.394Z,71.52
2023-02-02T04:43:21.939Z,71.81
2023-02-02T04:46:26.613Z,70.65
2023-02-02T04:49:29.162Z,71.18
2023-02-02T04:52:32.344Z,70.53
2023-02-02T04:55:38.922Z,70.35
2023-02-02T04:58:45.036Z,70.72
2023-02-02T05:01:48.283Z,71.09
2023-02-02T05:04:51.431Z,70.36
2023-02-02T05:07:54.077Z,70.71
2023-02-02T05:10:57.184Z,70.06
2023-02-02T05:13:59.765Z,69.76
2023-02-02T05:17:02.905Z,69.01
2023-02-02T05:20:05.706Z,69.21
2023-02-02T05:23:08.789Z,70.12
2023-02-02T05:26:22.331Z,69.85
2023-02-02T05:29:25.675Z,68.99
2023-02-02T05:32:31.326Z,68.66
2023-02-02T05:35:34.530Z,69.14
2023-02-02T05:38:37.137Z,70.00
2023-02-02T05:41:40.304Z,69.01
2023-02-02T05:44:42.843Z,68.58
2023-02-02T05:47:45.989Z,69.19
2023-02-02T05:51:05.533Z,69.59
2023-02-02T05:54:08.931Z,69.13
2023-02-02T05:57:12.186Z,69.19
2023-02-02T06:00:15.703Z,68.86
2023-02-02T06:03:18.633Z,68.25
2023-02-02T06:06:21.478Z,68.69
2023-02-02T06:09:25.286Z,67.98
2023-02-02T06:12:28.292Z,68.54
2023-02-02T06:15:33.002Z,67.19
2023-02-02T06:18:36.869Z,67.98
2023-02-02T06:21:39.697Z,67.73
2023-02-02T06:24:42.802Z,67.61
2023-02-02T06:27:46.341Z,67.58
2023-02-02T06:30:49.257Z,67.48
2023-02-02T06:33:56.860Z,67.82
2023-02-02T06:36:59.692Z,68.15
2023-02-02T06:40:07.392Z,67.99
2023-02-02T06:43:11.557Z,67.25
2023-02-02T06:46:15.109Z,67.13
2023-02-02T06:49:18.004Z,66.60
2023-02-02T06:52:20.895Z,66.58
2023-02-02T06:55:23.989Z,66.70
2023-02-02T06:58:27.997Z,65.72
2023-02-02T07:01:30.965Z,65.97
2023-02-02T07:04:33.836Z,65.67
2023-02-02T07:07:36.728Z,66.25
2023-02-02T07:11:14.235Z,65.27
2023-02-02T07:14:05.075Z,64.78
2023-02-02T07:17:07.993Z,65.33
2023-02-02T07:20:11.483Z,64.15
2023-02-02T07:23:14.255Z,62.65
2023-02-02T07:26:19.330Z,63.03
2023-02-02T07:29:22.339Z,63.67
2023-02-02T07:32:26.513Z,62.90
2023-02-02T07:35:29.412Z,61.91
2023-02-02T07:38:34.636Z,62.30
2023-02-02T07:41:37.698Z,61.76
2023-02-02T07:44:49.243Z,61.74
2023-02-02T07:47:59.533Z,60.81
2023-02-02T07:51:06.234Z,60.18
2023-02-02T07:54:09.746Z,59.34
2023-02-02T07:57:13.828Z,57.96
2023-02-02T08:00:17.135Z,57.10
2023-02-02T08:03:21.010Z,55.03
2023-02-02T08:06:28.527Z,53.31
2023-02-02T08:09:33.080Z,49.17
2023-02-02T08:12:35.606Z,47.98
2023-02-02T08:15:38.726Z,46.13
2023-02-02T08:18:42.280Z,44.54
2023-02-02T08:21:45.477Z,43.24
2023-02-02T08:24:48.167Z,40.81
2023-02-02T08:27:55.598Z,39.23
2023-02-02T08:31:04.581Z,36.64
2023-02-02T08:34:07.852Z,30.70
2023-02-02T08:37:10.559Z,27.25
2023-02-02T08:40:13.810Z,25.43
2023-02-02T08:43:17.348Z,23.99
2023-02-02T08:46:21.587Z,24.99
2023-02-02T08:49:25.141Z,23.83
2023-02-02T08:52:28.408Z,25.75
2023-02-02T08:55:33.674Z,28.67
2023-02-02T08:58:37.400Z,30.53
2023-02-02T09:01:40.107Z,31.29
2023-02-02T09:04:45.690Z,33.22
2023-02-02T09:07:49.330Z,34.44
2023-02-02T09:10:56.865Z,36.13
2023-02-02T09:14:02.216Z,37.02
2023-02-02T09:17:05.402Z,40.06
2023-02-02T09:20:08.417Z,39.31
2023-02-02T09:23:12.801Z,39.74
2023-02-02T09:26:17.493Z,40.04
2023-02-02T09:29:21.378Z,39.83
2023-02-02T09:32:23.992Z,42.33
2023-02-02T09:35:27.562Z,41.38
2023-02-02T09:38:30.257Z,40.51
2023-02-02T09:41:33.257Z,40.70
2023-02-02T09:44:58.069Z,40.82
2023-02-02T09:48:07.476Z,42.02
2023-02-02T09:51:15.993Z,43.30
2023-02-02T09:54:50.244Z,42.42
2023-02-02T09:58:01.759Z,43.35
2023-02-02T10:01:10.320Z,43.84
2023-02-02T10:04:24.833Z,43.22
2023-02-02T10:07:35.129Z,42.66
2023-02-02T10:10:43.536Z,43.18
2023-02-02T10:13:48.898Z,42.83
2023-02-02T10:16:54.967Z,43.68
2023-02-02T10:20:06.711Z,43.54
2023-02-02T10:23:40.289Z,43.55
2023-02-02T10:26:48.740Z,43.69
2023-02-02T10:30:00.189Z,44.15
2023-02-02T10:33:03.561Z,43.69
2023-02-02T10:36:22.807Z,44.51
2023-02-02T10:40:04.357Z,44.70
2023-02-02T10:43:52.538Z,44.59
2023-02-02T10:46:58.589Z,44.39
2023-02-02T10:50:13.562Z,43.67
2023-02-02T10:53:17.046Z,39.74
2023-02-02T10:56:26.741Z,35.44
2023-02-02T10:59:59.602Z,33.49
2023-02-02T11:03:04.819Z,33.24
2023-02-02T11:06:27.624Z,32.36
2023-02-02T11:09:39.663Z,32.11
2023-02-02T11:12:50.124Z,32.03
2023-02-02T11:16:15.621Z,31.72
2023-02-02T11:19:19.724Z,32.00
2023-02-02T11:22:28.189Z,31.92
2023-02-02T11:25:33.972Z,32.08
2023-02-02T11:28:37.427Z,32.97
2023-02-02T11:31:40.370Z,32.33
2023-02-02T11:34:43.640Z,31.50
2023-02-02T11:37:57.490Z,32.72
2023-02-02T11:41:11.124Z,31.75
2023-02-02T11:44:40.396Z,31.81
2023-02-02T11:47:45.733Z,30.29
2023-02-02T11:50:51.466Z,31.11
2023-02-02T11:54:17.657Z,31.65
2023-02-02T11:57:25.537Z,33.30
2023-02-02T12:00:28.802Z,35.75
2023-02-02T12:03:38.188Z,37.47
2023-02-02T12:06:41.011Z,37.51
2023-02-02T12:09:44.448Z,38.43
2023-02-02T12:12:56.251Z,41.08
2023-02-02T12:16:28.292Z,41.21
2023-02-02T12:20:02.447Z,42.32
2023-02-02T12:23:14.632Z,42.86
2023-02-02T12:26:30.756Z,43.72
2023-02-02T12:30:31.129Z,43.66
2023-02-02T12:33:33.612Z,43.93
2023-02-02T12:37:04.475Z,46.18
2023-02-02T12:40:22.398Z,45.97
2023-02-02T12:43:40.952Z,45.36
2023-02-02T12:46:57.112Z,46.52
2023-02-02T12:50:31.225Z,46.63
2023-02-02T12:54:34.782Z,46.51
2023-02-02T12:57:32.807Z,46.64
2023-02-02T13:01:00.044Z,47.67
2023-02-02T13:08:06.248Z,48.33
2023-02-02T13:11:32.902Z,48.72
2023-02-02T13:14:38.280Z,49.27
2023-02-02T13:17:55.093Z,50.33
2023-02-02T13:21:05.130Z,49.93
2023-02-02T13:24:15.991Z,49.30
2023-02-02T13:27:21.213Z,50.17
2023-02-02T13:30:39.478Z,50.63
2023-02-02T13:33:48.500Z,49.70
2023-02-02T13:37:17.163Z,49.10
2023-02-02T13:40:32.681Z,49.28
2023-02-02T13:43:42.588Z,50.51
2023-02-02T13:46:52.889Z,50.51
2023-02-02T13:50:05.778Z,50.53
2023-02-02T13:53:29.738Z,51.70
2023-02-02T13:56:52.051Z,50.55
2023-02-02T14:00:19.185Z,50.68
2023-02-02T14:03:29.833Z,50.21
2023-02-02T14:06:56.174Z,49.39
2023-02-02T14:09:59.571Z,49.74
2023-02-02T14:13:32.983Z,49.89
2023-02-02T14:16:35.964Z,49.92
2023-02-02T14:19:44.314Z,49.68
2023-02-02T14:22:50.869Z,49.63
2023-02-02T14:26:19.740Z,50.11
2023-02-02T14:29:31.959Z,49.35
2023-02-02T14:32:42.794Z,50.19
2023-02-02T14:35:45.861Z,50.95
2023-02-02T14:39:00.101Z,51.22
2023-02-02T14:43:03.794Z,52.03
2023-02-02T14:46:15.829Z,50.84
2023-02-02T14:49:24.518Z,51.50
2023-02-02T14:52:27.346Z,51.72
2023-02-02T14:55:31.007Z,51.98
2023-02-02T14:58:44.115Z,51.71
2023-02-02T15:01:59.403Z,51.10
2023-02-02T15:05:38.760Z,51.66
2023-02-02T15:08:41.963Z,51.01
2023-02-02T15:12:01.612Z,51.74
2023-02-02T15:15:17.713Z,52.47
2023-02-02T15:18:33.208Z,52.68
2023-02-02T15:21:40.638Z,51.61
2023-02-02T15:24:46.066Z,52.31
2023-02-02T15:28:09.128Z,53.08
2023-02-02T15:31:11.884Z,54.03
2023-02-02T15:34:24.870Z,53.81
2023-02-02T15:37:40.086Z,54.24
2023-02-02T15:40:44.215Z,53.29
2023-02-02T15:43:46.962Z,53.95
2023-02-02T15:46:51.041Z,54.48
2023-02-02T15:49:53.635Z,55.22
2023-02-02T15:52:56.966Z,54.57
2023-02-02T15:56:00.054Z,55.34
2023-02-02T15:59:20.293Z,55.34
2023-02-02T16:02:36.610Z,55.78
2023-02-02T16:05:39.691Z,54.58
2023-02-02T16:08:42.384Z,55.13
2023-02-02T16:11:47.679Z,56.36
2023-02-02T16:14:55.360Z,56.33
2023-02-02T16:18:02.838Z,56.36
2023-02-02T16:21:15.978Z,57.17
2023-02-02T16:24:24.386Z,57.93
2023-02-02T16:27:29.101Z,57.94
2023-02-02T16:30:39.023Z,58.39
2023-02-02T16:33:43.484Z,58.69
2023-02-02T16:37:05.336Z,58.18
2023-02-02T16:40:27.452Z,57.58
2023-02-02T16:43:30.939Z,58.17
2023-02-02T16:46:47.310Z,57.81
2023-02-02T16:49:50.750Z,57.67
2023-02-02T16:53:03.820Z,58.35
2023-02-02T16:56:09.042Z,58.34
2023-02-02T16:59:25.404Z,57.75
2023-02-02T17:02:40.835Z,57.84
2023-02-02T17:05:53.553Z,59.10
2023-02-02T17:08:56.746Z,58.24
2023-02-02T17:12:32.815Z,58.36
2023-02-02T17:15:37.124Z,59.22
2023-02-02T17:18:40.078Z,58.97
2023-02-02T17:21:43.373Z,58.84
2023-02-02T17:24:48.355Z,59.60
2023-02-02T17:27:51.948Z,59.20
2023-02-02T17:31:02.244Z,59.63
2023-02-02T17:34:16.390Z,59.01
2023-02-02T17:37:18.998Z,59.37
2023-02-02T17:40:23.830Z,59.52
2023-02-02T17:43:27.222Z,59.86
2023-02-02T17:46:33.630Z,59.77
2023-02-02T17:49:36.296Z,60.06
2023-02-02T17:52:39.870Z,60.33
2023-02-02T17:55:44.313Z,59.55
2023-02-02T17:58:47.393Z,59.85
2023-02-02T18:01:50.768Z,60.00
2023-02-02T18:04:53.956Z,60.11
2023-02-02T18:07:56.459Z,60.27
2023-02-02T18:10:59.872Z,60.91
2023-02-02T18:14:02.678Z,61.35
2023-02-02T18:17:05.972Z,61.55
2023-02-02T18:20:10.063Z,61.42
2023-02-02T18:23:13.679Z,62.10
2023-02-02T18:26:18.817Z,62.01
2023-02-02T18:29:21.957Z,62.61
2023-02-02T18:32:25.053Z,62.69
2023-02-02T18:35:28.528Z,62.71
2023-02-02T18:38:31.180Z,62.54
2023-02-02T18:41:34.448Z,62.92
2023-02-02T18:44:38.489Z,63.06
2023-02-02T18:47:41.733Z,62.55
2023-02-02T18:50:44.310Z,62.57
2023-02-02T18:53:48.138Z,62.40
2023-02-02T18:56:50.702Z,62.55
2023-02-02T18:59:54.005Z,62.58
2023-02-02T19:02:56.573Z,63.01
2023-02-02T19:06:29.131Z,62.59
2023-02-02T19:09:32.019Z,62.65
2023-02-02T19:12:35.171Z,62.62
2023-02-02T19:15:39.414Z,63.18
2023-02-02T19:18:42.985Z,63.35
2023-02-02T19:21:45.662Z,63.49
2023-02-02T19:24:50.052Z,63.55
2023-02-02T19:27:52.714Z,63.56
2023-02-02T19:30:58.524Z,63.38
2023-02-02T19:34:03.622Z,63.85
2023-02-02T19:37:26.373Z,63.95
2023-02-02T19:40:29.139Z,64.21
2023-02-02T19:43:33.162Z,63.78
2023-02-02T19:46:42.020Z,64.04
2023-02-02T19:49:45.269Z,64.35
2023-02-02T19:52:49.725Z,64.37
2023-02-02T19:55:52.996Z,64.51
2023-02-02T19:58:55.682Z,65.24
2023-02-02T20:02:03.736Z,65.02
2023-02-02T20:05:17.545Z,65.28
2023-02-02T20:08:38.284Z,65.22
2023-02-02T20:11:44.364Z,65.16
2023-02-02T20:14:48.157Z,65.88
2023-02-02T20:17:54.439Z,66.33
2023-02-02T20:20:58.088Z,66.18
2023-02-02T20:24:01.295Z,66.25
2023-02-02T20:27:18.105Z,66.67
2023-02-02T20:30:30.879Z,66.65
2023-02-02T20:33:34.201Z,66.80
2023-02-02T20:36:40.279Z,66.65
2023-02-02T20:40:07.823Z,66.58
2023-02-02T20:43:12.465Z,66.15
2023-02-02T20:46:16.205Z,66.04
2023-02-02T20:49:20.762Z,66.18
2023-02-02T20:52:24.169Z,66.48
2023-02-02T20:55:28.389Z,66.80
2023-02-02T20:58:31.769Z,67.17
2023-02-02T21:01:34.805Z,66.80
2023-02-02T21:04:39.021Z,66.89
2023-02-02T21:07:41.840Z,66.90
2023-02-02T21:10:44.621Z,67.16
2023-02-02T21:13:50.180Z,67.33
2023-02-02T21:17:02.369Z,67.75
2023-02-02T21:20:15.910Z,67.88
2023-02-02T21:23:18.798Z,67.67
2023-02-02T21:26:26.528Z,67.48
2023-02-02T21:29:31.418Z,67.56
2023-02-02T21:32:34.102Z,67.80
2023-02-02T21:35:37.706Z,67.86
2023-02-02T21:38:40.346Z,67.50
2023-02-02T21:41:43.887Z,67.51
2023-02-02T21:45:21.983Z,67.56
2023-02-02T21:48:32.841Z,66.90
2023-02-02T21:51:37.523Z,67.21
2023-02-02T21:54:41.113Z,67.26
2023-02-02T21:57:43.713Z,67.37
2023-02-02T22:00:47.265Z,67.33
2023-02-02T22:03:51.036Z,67.47
2023-02-02T22:07:00.666Z,67.01
2023-02-02T22:10:25.472Z,67.22
2023-02-02T22:13:34.881Z,67.18
2023-02-02T22:16:43.746Z,67.40
2023-02-02T22:19:46.942Z,67.59
2023-02-02T22:22:51.389Z,67.76
2023-02-02T22:25:58.545Z,67.32
2023-02-02T22:29:07.200Z,67.44
2023-02-02T22:32:10.023Z,67.42
2023-02-02T22:35:13.036Z,68.25
2023-02-02T22:38:18.234Z,67.56
2023-02-02T22:41:21.184Z,67.50
2023-02-02T22:44:24.082Z,68.24
2023-02-02T22:47:27.314Z,68.22
2023-02-02T22:50:31.708Z,67.78
2023-02-02T22:53:34.727Z,67.11
2023-02-02T22:56:37.784Z,67.23
2023-02-02T22:59:40.580Z,67.39
2023-02-02T23:02:43.979Z,67.18
2023-02-02T23:05:46.750Z,66.39
2023-02-02T23:08:49.594Z,67.01
2023-02-02T23:11:52.599Z,66.53
2023-02-02T23:14:55.417Z,66.93
2023-02-02T23:17:58.313Z,66.88
2023-02-02T23:21:01.176Z,66.21
2023-02-02T23:24:04.292Z,65.24
2023-02-02T23:27:07.079Z,66.09
2023-02-02T23:30:11.763Z,66.56
2023-02-02T23:33:14.548Z,66.16
2023-02-02T23:36:24.638Z,66.77
2023-02-02T23:39:33.284Z,66.64
2023-02-02T23:42:42.086Z,66.29
2023-02-02T23:46:00.258Z,65.07
2023-02-02T23:49:03.415Z,66.02
2023-02-02T23:52:06.607Z,66.51
2023-02-02T23:55:10.190Z,66.49
2023-02-02T23:58:13.645Z,65.77
